createdAt,value
2017-11-27T00:01:01.986Z,101347.79
2017-11-27T00:02:04.452Z,101352.73
2017-11-27T00:03:06.904Z,101347.79
2017-11-27T00:04:09.371Z,101348.05
2017-11-27T00:05:14.241Z,101344.44
2017-11-27T00:06:16.799Z,101348.53
2017-11-27T00:07:19.260Z,101348.87
2017-11-27T00:08:21.731Z,101349.18
2017-11-27T00:09:24.260Z,101346.66
2017-11-27T00:10:26.733Z,101354.49
2017-11-27T00:11:29.218Z,101350.92
2017-11-27T00:12:31.691Z,101352.78
2017-11-27T00:13:34.169Z,101356.92
2017-11-27T00:14:36.659Z,101350.13
2017-11-27T00:15:39.147Z,101352.31
2017-11-27T00:16:41.627Z,101352.22
2017-11-27T00:17:44.097Z,101353.17
2017-11-27T00:18:46.575Z,101351.66
2017-11-27T00:19:49.036Z,101344.66
2017-11-27T00:20:51.512Z,101349.05
2017-11-27T00:21:53.974Z,101350.39
2017-11-27T00:22:56.450Z,101349.09
2017-11-27T00:23:58.908Z,101348.48
2017-11-27T00:25:01.365Z,101343.88
2017-11-27T00:26:03.903Z,101345.40
2017-11-27T00:27:06.366Z,101336.10
2017-11-27T00:28:08.851Z,101331.50
2017-11-27T00:29:11.318Z,101334.71
2017-11-27T00:30:13.793Z,101336.80
2017-11-27T00:31:16.284Z,101343.31
2017-11-27T00:32:18.745Z,101345.02
2017-11-27T00:33:21.228Z,101335.00
2017-11-27T00:34:23.718Z,101334.36
2017-11-27T00:35:26.184Z,101336.31
2017-11-27T00:36:28.678Z,101334.92
2017-11-27T00:37:31.150Z,101336.19
2017-11-27T00:38:33.632Z,101337.11
2017-11-27T00:39:36.104Z,101327.58
2017-11-27T00:40:38.577Z,101332.19
2017-11-27T00:41:41.065Z,101332.84
2017-11-27T00:42:43.534Z,101328.87
2017-11-27T00:43:45.997Z,101324.41
2017-11-27T00:44:48.461Z,101336.83
2017-11-27T00:45:50.926Z,101335.31
2017-11-27T00:46:53.417Z,101327.53
2017-11-27T00:47:55.895Z,101331.35
2017-11-27T00:48:58.419Z,101333.66
2017-11-27T00:50:00.868Z,101329.40
2017-11-27T00:51:03.341Z,101330.66
2017-11-27T00:52:05.828Z,101326.61
2017-11-27T00:53:08.298Z,101324.34
2017-11-27T00:54:10.755Z,101328.22
2017-11-27T00:55:13.212Z,101323.53
2017-11-27T00:56:27.451Z,101321.95
2017-11-27T00:57:29.959Z,101324.53
2017-11-27T00:58:32.518Z,101327.05
2017-11-27T00:59:34.979Z,101325.48
2017-11-27T01:00:37.428Z,101328.52
2017-11-27T01:01:39.904Z,101328.78
2017-11-27T01:02:42.401Z,101329.00
2017-11-27T01:03:44.856Z,101324.09
2017-11-27T01:04:47.322Z,101326.61
2017-11-27T01:05:49.798Z,101322.27
2017-11-27T01:06:52.270Z,101318.20
2017-11-27T01:07:54.775Z,101321.52
2017-11-27T01:08:57.250Z,101315.27
2017-11-27T01:09:59.722Z,101316.09
2017-11-27T01:11:02.190Z,101317.53
2017-11-27T01:12:04.644Z,101322.04
2017-11-27T01:13:07.129Z,101314.00
2017-11-27T01:14:09.601Z,101324.34
2017-11-27T01:15:12.054Z,101319.13
2017-11-27T01:16:14.520Z,101322.48
2017-11-27T01:17:16.981Z,101325.25
2017-11-27T01:18:19.466Z,101323.73
2017-11-27T01:19:21.939Z,101323.16
2017-11-27T01:20:24.397Z,101324.20
2017-11-27T01:21:26.869Z,101325.77
2017-11-27T01:22:29.336Z,101328.42
2017-11-27T01:23:31.830Z,101322.23
2017-11-27T01:24:34.279Z,101327.28
2017-11-27T01:25:36.736Z,101324.80
2017-11-27T01:26:39.200Z,101323.29
2017-11-27T01:27:41.668Z,101324.06
2017-11-27T01:28:44.159Z,101322.80
2017-11-27T01:29:46.607Z,101322.42
2017-11-27T01:30:49.060Z,101325.94
2017-11-27T01:31:51.536Z,101322.11
2017-11-27T01:32:53.996Z,101323.80
2017-11-27T01:33:56.486Z,101321.75
2017-11-27T01:34:58.953Z,101327.23
2017-11-27T01:36:01.419Z,101324.89
2017-11-27T01:37:03.891Z,101330.11
2017-11-27T01:38:06.367Z,101327.16
2017-11-27T01:39:08.846Z,101329.16
2017-11-27T01:40:11.331Z,101328.55
2017-11-27T01:41:13.802Z,101332.51
2017-11-27T01:42:16.270Z,101332.63
2017-11-27T01:43:18.727Z,101330.38
2017-11-27T01:44:21.204Z,101323.86
2017-11-27T01:45:23.665Z,101319.90
2017-11-27T01:46:26.132Z,101317.20
2017-11-27T01:47:28.607Z,101315.98
2017-11-27T01:48:31.064Z,101318.07
2017-11-27T01:49:33.540Z,101321.86
2017-11-27T01:50:36.019Z,101321.08
2017-11-27T01:51:38.492Z,101324.22
2017-11-27T01:52:40.967Z,101322.22
2017-11-27T01:53:43.444Z,101322.44
2017-11-27T01:54:45.920Z,101319.56
2017-11-27T01:55:48.430Z,101315.70
2017-11-27T01:56:50.885Z,101318.48
2017-11-27T01:57:53.371Z,101313.62
2017-11-27T01:58:55.833Z,101309.97
2017-11-27T01:59:58.343Z,101315.23
2017-11-27T02:01:00.793Z,101301.63
2017-11-27T02:02:03.252Z,101304.67
2017-11-27T02:03:05.718Z,101302.38
2017-11-27T02:04:08.188Z,101300.32
2017-11-27T02:05:10.672Z,101305.67
2017-11-27T02:06:13.150Z,101298.54
2017-11-27T02:08:17.391Z,101297.80
2017-11-27T02:09:19.866Z,101299.23
2017-11-27T02:10:22.359Z,101299.70
2017-11-27T02:11:24.834Z,101302.02
2017-11-27T02:12:27.292Z,101298.36
2017-11-27T02:13:29.754Z,101291.19
2017-11-27T02:14:32.204Z,101288.09
2017-11-27T02:15:34.680Z,101289.69
2017-11-27T02:16:37.158Z,101286.60
2017-11-27T02:17:39.616Z,101285.00
2017-11-27T02:18:42.085Z,101289.00
2017-11-27T02:19:44.554Z,101287.30
2017-11-27T02:20:47.056Z,101288.73
2017-11-27T02:21:49.512Z,101287.58
2017-11-27T02:22:51.963Z,101281.36
2017-11-27T02:23:54.420Z,101283.11
2017-11-27T02:24:56.901Z,101286.20
2017-11-27T02:25:59.381Z,101280.72
2017-11-27T02:27:01.854Z,101280.59
2017-11-27T02:28:04.325Z,101279.45
2017-11-27T02:29:06.796Z,101277.55
2017-11-27T02:30:09.252Z,101279.62
2017-11-27T02:31:11.733Z,101280.63
2017-11-27T02:32:14.215Z,101281.02
2017-11-27T02:33:16.703Z,101272.07
2017-11-27T02:34:19.972Z,101271.20
2017-11-27T02:35:22.445Z,101264.24
2017-11-27T02:36:24.923Z,101264.06
2017-11-27T02:37:27.398Z,101263.20
2017-11-27T02:38:29.848Z,101263.30
2017-11-27T02:39:32.299Z,101272.02
2017-11-27T02:40:34.754Z,101265.77
2017-11-27T02:41:37.243Z,101267.72
2017-11-27T02:42:39.714Z,101265.41
2017-11-27T02:43:42.188Z,101264.41
2017-11-27T02:44:44.643Z,101262.70
2017-11-27T02:45:47.101Z,101262.23
2017-11-27T02:46:49.598Z,101265.66
2017-11-27T02:47:52.057Z,101262.62
2017-11-27T02:48:54.516Z,101270.29
2017-11-27T02:49:56.990Z,101273.33
2017-11-27T02:50:59.461Z,101268.05
2017-11-27T02:52:01.946Z,101269.44
2017-11-27T02:53:04.418Z,101267.84
2017-11-27T02:54:06.884Z,101271.31
2017-11-27T02:55:09.347Z,101263.27
2017-11-27T02:56:11.821Z,101265.66
2017-11-27T02:57:14.330Z,101269.88
2017-11-27T02:58:16.791Z,101264.66
2017-11-27T02:59:19.244Z,101269.13
2017-11-27T03:00:21.702Z,101270.08
2017-11-27T03:01:24.169Z,101266.94
2017-11-27T03:02:26.666Z,101268.33
2017-11-27T03:03:29.138Z,101270.58
2017-11-27T03:04:31.607Z,101261.45
2017-11-27T03:05:34.060Z,101265.53
2017-11-27T03:06:36.531Z,101260.80
2017-11-27T03:07:39.026Z,101268.63
2017-11-27T03:08:41.499Z,101258.35
2017-11-27T03:09:43.955Z,101260.95
2017-11-27T03:10:46.407Z,101261.75
2017-11-27T03:11:48.873Z,101259.55
2017-11-27T03:12:51.348Z,101264.91
2017-11-27T03:13:53.816Z,101262.14
2017-11-27T03:14:56.273Z,101260.25
2017-11-27T03:15:58.746Z,101256.29
2017-11-27T03:17:01.214Z,101254.82
2017-11-27T03:18:03.710Z,101253.17
2017-11-27T03:19:06.181Z,101250.34
2017-11-27T03:20:08.649Z,101249.39
2017-11-27T03:21:11.116Z,101248.25
2017-11-27T03:22:13.567Z,101248.20
2017-11-27T03:23:16.052Z,101245.73
2017-11-27T03:24:18.535Z,101245.95
2017-11-27T03:25:21.000Z,101245.95
2017-11-27T03:26:23.451Z,101245.36
2017-11-27T03:27:25.930Z,101244.41
2017-11-27T03:28:28.444Z,101240.05
2017-11-27T03:29:30.916Z,101239.63
2017-11-27T03:30:33.415Z,101241.77
2017-11-27T03:31:35.872Z,101237.09
2017-11-27T03:32:38.328Z,101235.83
2017-11-27T03:33:40.804Z,101237.03
2017-11-27T03:34:43.255Z,101232.64
2017-11-27T03:35:45.703Z,101229.77
2017-11-27T03:36:48.164Z,101231.09
2017-11-27T03:37:50.627Z,101237.34
2017-11-27T03:38:53.218Z,101227.38
2017-11-27T03:39:55.690Z,101236.46
2017-11-27T03:40:58.145Z,101233.83
2017-11-27T03:42:00.622Z,101237.53
2017-11-27T03:43:03.098Z,101234.96
2017-11-27T03:44:05.576Z,101229.61
2017-11-27T03:45:08.038Z,101233.95
2017-11-27T03:46:10.501Z,101229.09
2017-11-27T03:47:12.993Z,101221.46
2017-11-27T03:48:15.469Z,101222.33
2017-11-27T03:49:17.965Z,101216.43
2017-11-27T03:50:20.449Z,101215.48
2017-11-27T03:51:22.929Z,101213.45
2017-11-27T03:52:25.405Z,101217.11
2017-11-27T03:53:27.878Z,101216.50
2017-11-27T03:54:30.366Z,101208.46
2017-11-27T03:55:32.819Z,101209.12
2017-11-27T03:56:35.291Z,101201.30
2017-11-27T03:57:37.757Z,101202.87
2017-11-27T03:58:40.222Z,101204.37
2017-11-27T03:59:42.714Z,101208.58
2017-11-27T04:00:45.182Z,101206.24
2017-11-27T04:01:47.637Z,101200.38
2017-11-27T04:02:50.097Z,101196.73
2017-11-27T04:03:52.562Z,101199.61
2017-11-27T04:04:55.063Z,101201.57
2017-11-27T04:05:57.528Z,101196.92
2017-11-27T04:07:00.007Z,101200.48
2017-11-27T04:08:02.474Z,101198.48
2017-11-27T04:09:04.930Z,101198.61
2017-11-27T04:10:07.422Z,101189.97
2017-11-27T04:11:09.952Z,101191.05
2017-11-27T04:12:12.417Z,101193.52
2017-11-27T04:13:14.887Z,101188.78
2017-11-27T04:14:17.339Z,101185.58
2017-11-27T04:15:19.815Z,101182.11
2017-11-27T04:16:22.263Z,101191.44
2017-11-27T04:17:24.720Z,101183.36
2017-11-27T04:18:27.215Z,101184.45
2017-11-27T04:19:29.663Z,101181.18
2017-11-27T04:20:32.135Z,101181.74
2017-11-27T04:21:34.613Z,101180.92
2017-11-27T04:22:37.176Z,101176.00
2017-11-27T04:23:39.629Z,101177.58
2017-11-27T04:24:42.092Z,101170.45
2017-11-27T04:25:44.602Z,101165.17
2017-11-27T04:26:47.070Z,101164.72
2017-11-27T04:27:49.560Z,101165.53
2017-11-27T04:28:52.033Z,101165.30
2017-11-27T04:29:54.484Z,101160.93
2017-11-27T04:30:56.968Z,101158.80
2017-11-27T04:31:59.434Z,101161.50
2017-11-27T04:33:01.897Z,101156.45
2017-11-27T04:34:04.373Z,101165.23
2017-11-27T04:35:06.837Z,101164.20
2017-11-27T04:36:09.331Z,101162.27
2017-11-27T04:37:11.802Z,101161.38
2017-11-27T04:38:14.274Z,101166.11
2017-11-27T04:39:16.754Z,101162.27
2017-11-27T04:40:19.243Z,101162.89
2017-11-27T04:41:21.727Z,101158.03
2017-11-27T04:42:24.300Z,101152.36
2017-11-27T04:43:26.777Z,101161.12
2017-11-27T04:44:29.255Z,101162.77
2017-11-27T04:45:31.707Z,101162.05
2017-11-27T04:46:34.189Z,101158.28
2017-11-27T04:47:36.662Z,101157.14
2017-11-27T04:48:39.131Z,101157.09
2017-11-27T04:49:41.588Z,101153.16
2017-11-27T04:50:44.058Z,101153.10
2017-11-27T04:51:46.546Z,101152.84
2017-11-27T04:52:49.018Z,101153.16
2017-11-27T04:53:51.502Z,101145.83
2017-11-27T04:54:53.972Z,101142.46
2017-11-27T04:55:56.424Z,101137.99
2017-11-27T04:56:58.912Z,101139.75
2017-11-27T04:58:01.363Z,101139.16
2017-11-27T04:59:03.834Z,101137.61
2017-11-27T05:00:06.307Z,101136.36
2017-11-27T05:01:08.778Z,101135.13
2017-11-27T05:02:11.252Z,101129.91
2017-11-27T05:03:13.749Z,101129.95
2017-11-27T05:04:16.220Z,101134.99
2017-11-27T05:05:18.674Z,101126.05
2017-11-27T05:06:21.142Z,101130.34
2017-11-27T05:07:23.629Z,101127.12
2017-11-27T05:08:26.098Z,101132.23
2017-11-27T05:09:28.579Z,101125.43
2017-11-27T05:10:31.049Z,101126.36
2017-11-27T05:11:33.629Z,101128.87
2017-11-27T05:12:36.122Z,101124.45
2017-11-27T05:13:38.587Z,101119.98
2017-11-27T05:14:41.057Z,101120.75
2017-11-27T05:15:43.515Z,101120.32
2017-11-27T05:16:45.968Z,101120.39
2017-11-27T05:17:48.482Z,101123.16
2017-11-27T05:18:50.938Z,101120.11
2017-11-27T05:19:53.406Z,101120.28
2017-11-27T05:20:55.856Z,101118.30
2017-11-27T05:21:58.333Z,101111.09
2017-11-27T05:23:00.809Z,101108.37
2017-11-27T05:24:03.264Z,101111.28
2017-11-27T05:25:05.738Z,101107.44
2017-11-27T05:26:08.206Z,101108.89
2017-11-27T05:27:10.670Z,101107.64
2017-11-27T05:28:13.156Z,101103.47
2017-11-27T05:29:15.625Z,101104.15
2017-11-27T05:30:18.094Z,101105.81
2017-11-27T05:31:20.547Z,101101.53
2017-11-27T05:32:23.016Z,101098.76
2017-11-27T05:33:25.485Z,101095.28
2017-11-27T05:34:27.962Z,101097.13
2017-11-27T05:35:30.412Z,101094.64
2017-11-27T05:36:32.864Z,101097.25
2017-11-27T05:37:35.337Z,101095.41
2017-11-27T05:38:37.820Z,101090.80
2017-11-27T05:39:40.280Z,101090.86
2017-11-27T05:40:42.754Z,101089.44
2017-11-27T05:41:45.313Z,101090.67
2017-11-27T05:42:47.785Z,101091.50
2017-11-27T05:43:50.281Z,101089.93
2017-11-27T05:44:52.736Z,101093.09
2017-11-27T05:45:55.219Z,101086.79
2017-11-27T05:46:57.696Z,101087.58
2017-11-27T05:48:00.146Z,101089.09
2017-11-27T05:49:02.614Z,101088.55
2017-11-27T05:50:05.086Z,101081.80
2017-11-27T05:51:07.566Z,101080.48
2017-11-27T05:52:10.034Z,101079.73
2017-11-27T05:53:12.539Z,101080.40
2017-11-27T05:54:15.026Z,101080.27
2017-11-27T05:55:17.489Z,101079.02
2017-11-27T05:56:19.960Z,101071.02
2017-11-27T05:57:22.424Z,101073.55
2017-11-27T05:58:24.971Z,101067.50
2017-11-27T05:59:27.453Z,101074.75
2017-11-27T06:00:29.928Z,101072.78
2017-11-27T06:01:32.398Z,101070.20
2017-11-27T06:02:34.889Z,101063.50
2017-11-27T06:03:37.352Z,101061.98
2017-11-27T06:04:39.838Z,101060.41
2017-11-27T06:05:42.301Z,101056.08
2017-11-27T06:06:44.765Z,101052.80
2017-11-27T06:07:47.236Z,101050.75
2017-11-27T06:08:49.696Z,101057.08
2017-11-27T06:09:52.168Z,101048.13
2017-11-27T06:10:54.738Z,101046.91
2017-11-27T06:11:57.201Z,101044.63
2017-11-27T06:12:59.667Z,101043.27
2017-11-27T06:14:02.134Z,101045.06
2017-11-27T06:15:04.673Z,101034.06
2017-11-27T06:16:07.127Z,101042.50
2017-11-27T06:17:09.581Z,101034.55
2017-11-27T06:18:12.050Z,101032.51
2017-11-27T06:19:14.522Z,101035.03
2017-11-27T06:20:17.005Z,101031.68
2017-11-27T06:21:19.520Z,101033.66
2017-11-27T06:22:21.976Z,101027.48
2017-11-27T06:23:24.463Z,101027.27
2017-11-27T06:24:26.945Z,101029.67
2017-11-27T06:25:29.438Z,101029.33
2017-11-27T06:26:31.896Z,101024.53
2017-11-27T06:27:34.362Z,101027.68
2017-11-27T06:28:36.825Z,101025.19
2017-11-27T06:29:39.290Z,101017.42
2017-11-27T06:30:41.778Z,101014.73
2017-11-27T06:31:44.228Z,101019.31
2017-11-27T06:32:46.714Z,101012.67
2017-11-27T06:33:49.172Z,101013.86
2017-11-27T06:34:51.717Z,101010.39
2017-11-27T06:35:54.209Z,101009.55
2017-11-27T06:36:56.660Z,101007.88
2017-11-27T06:37:59.125Z,101009.20
2017-11-27T06:39:01.599Z,101005.42
2017-11-27T06:40:04.092Z,101004.53
2017-11-27T06:41:06.722Z,101002.92
2017-11-27T06:42:09.194Z,101003.44
2017-11-27T06:43:11.655Z,101006.49
2017-11-27T06:44:14.125Z,101001.48
2017-11-27T06:45:16.594Z,100997.16
2017-11-27T06:46:19.120Z,100991.62
2017-11-27T06:47:21.573Z,100987.56
2017-11-27T06:48:24.024Z,100983.58
2017-11-27T06:49:26.493Z,100985.47
2017-11-27T06:50:28.985Z,100992.11
2017-11-27T06:51:31.510Z,100984.36
2017-11-27T06:52:33.982Z,100989.59
2017-11-27T06:53:36.444Z,100980.22
2017-11-27T06:54:38.945Z,100990.59
2017-11-27T06:55:41.422Z,100981.57
2017-11-27T06:56:43.887Z,100973.05
2017-11-27T06:57:46.360Z,100976.36
2017-11-27T06:58:48.816Z,100980.97
2017-11-27T06:59:51.275Z,100975.34
2017-11-27T07:00:53.760Z,100975.50
2017-11-27T07:01:56.249Z,100974.44
2017-11-27T07:02:58.718Z,100972.78
2017-11-27T07:04:01.213Z,100967.61
2017-11-27T07:05:03.685Z,100974.08
2017-11-27T07:06:06.139Z,100963.71
2017-11-27T07:07:08.668Z,100961.00
2017-11-27T07:08:11.138Z,100963.99
2017-11-27T07:09:13.610Z,100956.38
2017-11-27T07:10:16.161Z,100955.67
2017-11-27T07:11:18.615Z,100951.84
2017-11-27T07:12:21.087Z,100948.89
2017-11-27T07:13:23.558Z,100948.89
2017-11-27T07:14:26.012Z,100948.34
2017-11-27T07:15:28.472Z,100944.75
2017-11-27T07:16:30.919Z,100943.84
2017-11-27T07:17:33.397Z,100943.72
2017-11-27T07:18:35.856Z,100945.06
2017-11-27T07:19:38.311Z,100937.50
2017-11-27T07:20:40.959Z,100949.86
2017-11-27T07:21:43.419Z,100947.39
2017-11-27T07:22:45.933Z,100949.55
2017-11-27T07:23:48.388Z,100943.56
2017-11-27T07:24:50.870Z,100945.17
2017-11-27T07:25:53.407Z,100944.02
2017-11-27T07:26:55.855Z,100944.25
2017-11-27T07:27:58.332Z,100944.45
2017-11-27T07:29:00.798Z,100946.56
2017-11-27T07:30:03.251Z,100932.83
2017-11-27T07:31:05.722Z,100933.46
2017-11-27T07:32:08.185Z,100930.09
2017-11-27T07:33:10.660Z,100933.88
2017-11-27T07:34:13.129Z,100928.06
2017-11-27T07:35:15.604Z,100923.52
2017-11-27T07:36:18.070Z,100924.98
2017-11-27T07:39:08.140Z,100920.41
2017-11-27T07:40:10.614Z,100920.25
2017-11-27T07:41:13.099Z,100919.92
2017-11-27T07:42:15.562Z,100913.91
2017-11-27T07:43:18.037Z,100919.22
2017-11-27T07:44:20.536Z,100914.58
2017-11-27T07:45:22.995Z,100914.48
2017-11-27T07:46:25.474Z,100918.70
2017-11-27T07:47:27.924Z,100915.53
2017-11-27T07:48:30.401Z,100904.74
2017-11-27T07:49:32.868Z,100915.05
2017-11-27T07:50:35.325Z,100919.55
2017-11-27T07:51:37.785Z,100922.08
2017-11-27T07:52:40.260Z,100915.75
2017-11-27T07:53:42.716Z,100902.77
2017-11-27T07:54:45.211Z,100904.06
2017-11-27T07:55:47.679Z,100903.56
2017-11-27T07:56:50.163Z,100901.58
2017-11-27T07:57:52.639Z,100899.81
2017-11-27T07:58:55.105Z,100894.50
2017-11-27T07:59:57.576Z,100887.33
2017-11-27T08:01:00.023Z,100891.30
2017-11-27T08:02:02.498Z,100894.77
2017-11-27T08:03:04.970Z,100887.16
2017-11-27T08:04:07.437Z,100887.77
2017-11-27T08:05:09.912Z,100886.02
2017-11-27T08:06:12.383Z,100887.52
2017-11-27T08:07:14.863Z,100885.25
2017-11-27T08:08:17.333Z,100880.86
2017-11-27T08:09:19.785Z,100877.95
2017-11-27T08:10:22.273Z,100877.44
2017-11-27T08:11:24.734Z,100880.11
2017-11-27T08:12:27.206Z,100882.55
2017-11-27T08:13:29.686Z,100876.52
2017-11-27T08:14:32.156Z,100879.53
2017-11-27T08:15:34.654Z,100871.27
2017-11-27T08:16:37.108Z,100882.75
2017-11-27T08:17:39.587Z,100868.27
2017-11-27T08:18:42.048Z,100865.35
2017-11-27T08:19:44.518Z,100866.10
2017-11-27T08:20:47.000Z,100858.30
2017-11-27T08:21:49.449Z,100860.87
2017-11-27T08:22:51.907Z,100861.14
2017-11-27T08:23:54.378Z,100854.45
2017-11-27T08:24:56.858Z,100858.20
2017-11-27T08:25:59.381Z,100852.92
2017-11-27T08:27:01.853Z,100857.84
2017-11-27T08:28:04.323Z,100851.66
2017-11-27T08:29:06.776Z,100846.94
2017-11-27T08:30:09.252Z,100847.61
2017-11-27T08:31:11.727Z,100845.05
2017-11-27T08:32:14.193Z,100848.47
2017-11-27T08:33:16.657Z,100839.66
2017-11-27T08:34:19.138Z,100844.77
2017-11-27T08:35:21.597Z,100846.94
2017-11-27T08:36:24.096Z,100843.78
2017-11-27T08:37:26.544Z,100843.16
2017-11-27T08:38:29.041Z,100834.53
2017-11-27T08:39:31.517Z,100828.94
2017-11-27T08:40:33.972Z,100827.68
2017-11-27T08:41:36.453Z,100818.94
2017-11-27T08:42:38.931Z,100820.95
2017-11-27T08:43:41.411Z,100815.91
2017-11-27T08:44:43.885Z,100815.75
2017-11-27T08:45:46.344Z,100808.42
2017-11-27T08:46:48.838Z,100808.23
2017-11-27T08:47:51.298Z,100801.41
2017-11-27T08:48:53.751Z,100807.40
2017-11-27T08:49:56.217Z,100800.63
2017-11-27T08:50:58.674Z,100804.05
2017-11-27T08:52:01.155Z,100797.04
2017-11-27T08:53:03.626Z,100788.73
2017-11-27T08:54:06.094Z,100794.48
2017-11-27T08:55:08.566Z,100785.51
2017-11-27T08:56:11.025Z,100797.56
2017-11-27T08:57:13.504Z,100784.20
2017-11-27T08:58:15.974Z,100782.19
2017-11-27T08:59:18.438Z,100788.22
2017-11-27T09:00:20.900Z,100791.06
2017-11-27T09:01:23.357Z,100781.33
2017-11-27T09:02:25.836Z,100784.12
2017-11-27T09:03:28.377Z,100788.88
2017-11-27T09:04:30.835Z,100782.41
2017-11-27T09:05:33.305Z,100788.05
2017-11-27T09:06:35.778Z,100778.75
2017-11-27T09:07:38.266Z,100780.22
2017-11-27T09:08:40.724Z,100768.84
2017-11-27T09:09:43.180Z,100770.44
2017-11-27T09:10:45.651Z,100766.21
2017-11-27T09:11:48.122Z,100763.74
2017-11-27T09:12:50.615Z,100760.08
2017-11-27T09:13:53.100Z,100752.05
2017-11-27T09:14:55.557Z,100751.61
2017-11-27T09:15:58.010Z,100754.80
2017-11-27T09:17:00.487Z,100752.92
2017-11-27T09:18:02.989Z,100748.56
2017-11-27T09:19:05.470Z,100752.28
2017-11-27T09:20:07.947Z,100744.67
2017-11-27T09:21:10.406Z,100739.56
2017-11-27T09:22:12.928Z,100737.38
2017-11-27T09:23:15.432Z,100739.51
2017-11-27T09:24:17.902Z,100733.92
2017-11-27T09:25:20.370Z,100732.43
2017-11-27T09:26:22.847Z,100731.38
2017-11-27T09:27:25.341Z,100724.95
2017-11-27T09:28:27.840Z,100733.34
2017-11-27T09:29:30.307Z,100724.84
2017-11-27T09:30:32.779Z,100723.64
2017-11-27T09:31:35.295Z,100719.80
2017-11-27T09:32:37.757Z,100717.30
2017-11-27T09:33:40.242Z,100725.73
2017-11-27T09:34:42.710Z,100716.19
2017-11-27T09:35:45.186Z,100717.62
2017-11-27T09:36:47.673Z,100721.41
2017-11-27T09:37:50.196Z,100714.45
2017-11-27T09:38:53.194Z,100711.44
2017-11-27T09:39:55.648Z,100709.27
2017-11-27T09:40:58.116Z,100697.84
2017-11-27T09:42:00.567Z,100702.25
2017-11-27T09:43:03.031Z,100707.39
2017-11-27T09:44:05.531Z,100703.94
2017-11-27T09:45:08.007Z,100704.56
2017-11-27T09:46:10.484Z,100702.72
2017-11-27T09:47:12.971Z,100691.05
2017-11-27T09:48:15.424Z,100690.02
2017-11-27T09:49:17.914Z,100684.43
2017-11-27T09:50:20.381Z,100686.09
2017-11-27T09:51:22.888Z,100687.17
2017-11-27T09:52:25.356Z,100684.14
2017-11-27T09:53:27.826Z,100681.52
2017-11-27T09:54:30.322Z,100679.39
2017-11-27T09:55:32.776Z,100678.81
2017-11-27T09:56:35.273Z,100678.49
2017-11-27T09:57:37.728Z,100673.12
2017-11-27T09:58:40.244Z,100677.20
2017-11-27T09:59:42.697Z,100667.20
2017-11-27T10:00:45.147Z,100668.91
2017-11-27T10:01:47.623Z,100664.17
2017-11-27T10:02:50.075Z,100664.47
2017-11-27T10:03:52.587Z,100668.91
2017-11-27T10:04:55.068Z,100670.27
2017-11-27T10:05:57.548Z,100663.97
2017-11-27T10:07:00.107Z,100659.12
2017-11-27T10:08:02.581Z,100654.59
2017-11-27T10:09:05.036Z,100648.96
2017-11-27T10:10:07.537Z,100642.29
2017-11-27T10:11:10.004Z,100652.75
2017-11-27T10:12:12.473Z,100647.84
2017-11-27T10:13:14.927Z,100647.98
2017-11-27T10:14:17.429Z,100648.86
2017-11-27T10:15:19.916Z,100648.81
2017-11-27T10:16:22.381Z,100652.97
2017-11-27T10:17:24.844Z,100652.53
2017-11-27T10:18:27.452Z,100645.61
2017-11-27T10:19:29.944Z,100639.30
2017-11-27T10:20:32.434Z,100638.72
2017-11-27T10:21:34.892Z,100638.42
2017-11-27T10:22:37.414Z,100634.03
2017-11-27T10:23:39.911Z,100635.17
2017-11-27T10:24:42.365Z,100625.94
2017-11-27T10:25:45.055Z,100627.20
2017-11-27T10:26:47.516Z,100623.88
2017-11-27T10:27:49.989Z,100627.27
2017-11-27T10:28:52.454Z,100623.81
2017-11-27T10:29:54.927Z,100627.20
2017-11-27T10:30:57.414Z,100622.16
2017-11-27T10:31:59.864Z,100629.04
2017-11-27T10:33:02.330Z,100626.66
2017-11-27T10:34:04.811Z,100620.23
2017-11-27T10:35:07.320Z,100614.03
2017-11-27T10:36:09.830Z,100623.77
2017-11-27T10:37:12.296Z,100620.88
2017-11-27T10:38:14.761Z,100618.61
2017-11-27T10:39:17.909Z,100617.82
2017-11-27T10:40:20.382Z,100607.10
2017-11-27T10:41:22.860Z,100613.78
2017-11-27T10:42:25.316Z,100602.13
2017-11-27T10:43:27.781Z,100602.02
2017-11-27T10:44:30.227Z,100591.95
2017-11-27T10:45:32.693Z,100592.06
2017-11-27T10:46:35.168Z,100583.28
2017-11-27T10:47:37.638Z,100581.20
2017-11-27T10:48:40.101Z,100578.63
2017-11-27T10:49:42.569Z,100575.44
2017-11-27T10:50:45.038Z,100573.81
2017-11-27T10:51:47.535Z,100577.92
2017-11-27T10:52:49.997Z,100573.20
2017-11-27T10:53:52.498Z,100568.66
2017-11-27T10:54:54.953Z,100567.97
2017-11-27T10:55:57.415Z,100567.27
2017-11-27T10:56:59.896Z,100568.36
2017-11-27T10:58:02.362Z,100564.25
2017-11-27T10:59:04.833Z,100567.70
2017-11-27T11:00:07.285Z,100558.17
2017-11-27T11:01:09.736Z,100559.84
2017-11-27T11:02:12.204Z,100558.64
2017-11-27T11:03:14.697Z,100559.00
2017-11-27T11:04:17.155Z,100547.17
2017-11-27T11:05:19.612Z,100551.43
2017-11-27T11:06:22.077Z,100545.33
2017-11-27T11:07:24.579Z,100548.25
2017-11-27T11:08:27.057Z,100552.03
2017-11-27T11:09:29.554Z,100548.35
2017-11-27T11:10:32.042Z,100555.37
2017-11-27T11:11:34.507Z,100549.72
2017-11-27T11:12:37.036Z,100542.14
2017-11-27T11:13:39.502Z,100535.43
2017-11-27T11:14:41.949Z,100543.51
2017-11-27T11:15:44.414Z,100539.27
2017-11-27T11:16:46.870Z,100538.00
2017-11-27T11:17:49.366Z,100530.66
2017-11-27T11:18:51.813Z,100525.37
2017-11-27T11:19:54.596Z,100528.52
2017-11-27T11:20:57.051Z,100518.42
2017-11-27T11:21:59.503Z,100516.80
2017-11-27T11:23:02.044Z,100511.75
2017-11-27T11:24:04.515Z,100507.05
2017-11-27T11:25:06.976Z,100503.53
2017-11-27T11:26:09.423Z,100493.73
2017-11-27T11:27:11.886Z,100502.91
2017-11-27T11:28:14.368Z,100486.66
2017-11-27T11:29:16.825Z,100492.04
2017-11-27T11:30:19.311Z,100488.25
2017-11-27T11:31:21.780Z,100476.48
2017-11-27T11:32:24.249Z,100483.37
2017-11-27T11:33:26.738Z,100489.72
2017-11-27T11:34:29.213Z,100478.22
2017-11-27T11:35:31.682Z,100468.65
2017-11-27T11:36:34.154Z,100470.04
2017-11-27T11:37:36.604Z,100447.94
2017-11-27T11:38:39.100Z,100464.36
2017-11-27T11:39:41.552Z,100457.45
2017-11-27T11:40:43.998Z,100453.09
2017-11-27T11:41:46.452Z,100451.60
2017-11-27T11:42:48.899Z,100438.00
2017-11-27T11:43:51.393Z,100442.39
2017-11-27T11:44:53.849Z,100430.92
2017-11-27T11:45:56.328Z,100428.91
2017-11-27T11:46:58.821Z,100429.93
2017-11-27T11:48:01.286Z,100417.50
2017-11-27T11:49:03.769Z,100411.66
2017-11-27T11:50:06.241Z,100410.89
2017-11-27T11:51:08.714Z,100419.63
2017-11-27T11:52:11.177Z,100408.77
2017-11-27T11:53:13.732Z,100401.32
2017-11-27T11:54:16.390Z,100395.34
2017-11-27T11:55:18.903Z,100389.95
2017-11-27T11:56:21.410Z,100388.99